Time;durP1;ratioP1;P1;durP2;ratioP2;P2;SDS_P1;SDS_P2;PMS_P1;PMS_P2;Temp;Humidity;BMP_temperature;BMP_pressure;BME280_temperature;BME280_humidity;BME280_pressure;Samples;Min_cycle;Max_cycle;Signal;HPM_P1;HPM_P2
2023/06/11 00:01:41;;;;;;;22.70;12.93;;;;;;;;;;6255871;28;20045;-57
2023/06/11 00:05:00;;;;;;;17.25;12.30;;;;;;;;;;6257443;28;20049;-54
2023/06/11 00:08:00;;;;;;;;;;;;;;;;;;6260750;28;20695;-58
2023/06/11 00:11:01;;;;;;;19.38;12.55;;;;;;;;;;6257227;28;20542;-61
2023/06/11 00:14:02;;;;;;;17.35;12.02;;;;;;;;;;6257199;28;20419;-57
2023/06/11 00:17:03;;;;;;;21.42;13.10;;;;;;;;;;6260416;28;20495;-55
2023/06/11 00:20:11;;;;;;;18.55;12.30;;;;;;;;;;6259715;28;20389;-57
2023/06/11 00:23:11;;;;;;;19.77;12.90;;;;;;;;;;6260542;28;20125;-58
2023/06/11 00:26:12;;;;;;;20.17;13.40;;;;;;;;;;6261496;28;20575;-57
2023/06/11 00:29:13;;;;;;;18.73;13.07;;;;;;;;;;6263605;28;20049;-53
2023/06/11 00:32:14;;;;;;;18.88;12.88;;;;;;;;;;6262744;28;20041;-53
2023/06/11 00:35:14;;;;;;;18.95;12.63;;;;;;;;;;6259664;28;20195;-54
2023/06/11 00:38:15;;;;;;;19.33;12.93;;;;;;;;;;6258671;28;20048;-57
2023/06/11 00:41:16;;;;;;;20.40;13.38;;;;;;;;;;6261573;28;20144;-57
2023/06/11 00:44:21;;;;;;;18.20;13.05;;;;;;;;;;6263297;28;20468;-55
2023/06/11 00:47:22;;;;;;;18.50;12.70;;;;;;;;;;6260754;28;20536;-58
2023/06/11 00:50:22;;;;;;;22.20;12.75;;;;;;;;;;6260346;28;20567;-54
2023/06/11 00:53:23;;;;;;;21.23;13.65;;;;;;;;;;6255754;28;20171;-54
2023/06/11 00:56:26;;;;;;;18.58;12.60;;;;;;;;;;6260346;28;20053;-57
2023/06/11 00:59:27;;;;;;;19.13;13.43;;;;;;;;;;6257155;28;20045;-55
2023/06/11 01:02:44;;;;;;;22.10;14.00;;;;;;;;;;6254245;28;20046;-53
2023/06/11 01:05:49;;;;;;;20.10;13.63;;;;;;;;;;6254623;28;20060;-57
2023/06/11 01:08:57;;;;;;;21.00;13.07;;;;;;;;;;6256882;28;20144;-51
2023/06/11 01:11:58;;;;;;;18.20;12.70;;;;;;;;;;6254814;28;20393;-58
2023/06/11 01:14:59;;;;;;;19.67;13.80;;;;;;;;;;6256778;28;20091;-54
2023/06/11 01:18:18;;;;;;;19.48;13.68;;;;;;;;;;6257868;28;20045;-57
2023/06/11 01:21:24;;;;;;;18.90;12.77;;;;;;;;;;6255393;28;20051;-54
2023/06/11 01:24:48;;;;;;;18.58;12.73;;;;;;;;;;6255416;28;20079;-57
2023/06/11 01:27:56;;;;;;;19.45;13.02;;;;;;;;;;6253528;28;20036;-53
2023/06/11 01:30:59;;;;;;;18.52;13.18;;;;;;;;;;6256070;28;20033;-55
2023/06/11 01:34:01;;;;;;;18.88;13.15;;;;;;;;;;6254676;28;20037;-57
2023/06/11 01:37:02;;;;;;;18.95;13.30;;;;;;;;;;6256909;28;20463;-55
2023/06/11 01:40:03;;;;;;;19.23;12.82;;;;;;;;;;6255758;28;20115;-57
2023/06/11 01:43:03;;;;;;;19.45;13.52;;;;;;;;;;6257027;28;20057;-56
2023/06/11 01:46:04;;;;;;;19.70;13.93;;;;;;;;;;6256183;28;20049;-57
2023/06/11 01:49:05;;;;;;;18.20;12.65;;;;;;;;;;6257581;28;20044;-51
2023/06/11 01:52:06;;;;;;;21.10;14.30;;;;;;;;;;6258949;28;20056;-57
2023/06/11 01:55:08;;;;;;;22.87;13.33;;;;;;;;;;6254639;28;20125;-55
2023/06/11 01:58:08;;;;;;;19.48;13.73;;;;;;;;;;6253264;28;20039;-53
2023/06/11 02:01:09;;;;;;;22.15;12.95;;;;;;;;;;6256811;28;20033;-56
2023/06/11 02:04:10;;;;;;;19.70;13.93;;;;;;;;;;6257745;28;20515;-58
2023/06/11 02:07:11;;;;;;;21.50;14.38;;;;;;;;;;6257358;28;20037;-56
2023/06/11 02:10:12;;;;;;;23.63;14.93;;;;;;;;;;6256319;28;20047;-55
2023/06/11 02:13:12;;;;;;;22.98;13.60;;;;;;;;;;6256181;28;20560;-56
2023/06/11 02:16:13;;;;;;;19.15;13.57;;;;;;;;;;6254090;28;20041;-56
2023/06/11 02:19:14;;;;;;;23.35;14.57;;;;;;;;;;6256078;28;20048;-57
2023/06/11 02:22:15;;;;;;;22.58;14.48;;;;;;;;;;6256207;28;20084;-57
2023/06/11 02:25:15;;;;;;;22.48;15.60;;;;;;;;;;6256222;28;20041;-58
2023/06/11 02:28:16;;;;;;;19.67;14.68;;;;;;;;;;6257758;28;20049;-52
2023/06/11 02:31:17;;;;;;;22.98;13.90;;;;;;;;;;6254986;28;20110;-58
2023/06/11 02:34:18;;;;;;;22.95;14.63;;;;;;;;;;6258536;28;20056;-58
2023/06/11 02:37:19;;;;;;;25.98;15.40;;;;;;;;;;6260660;28;20084;-52
2023/06/11 02:40:20;;;;;;;24.20;15.05;;;;;;;;;;6261802;28;20044;-53
2023/06/11 02:43:20;;;;;;;22.90;14.80;;;;;;;;;;6262097;28;20118;-56
2023/06/11 02:46:21;;;;;;;22.48;14.75;;;;;;;;;;6259827;28;20048;-57
2023/06/11 02:49:22;;;;;;;21.92;15.00;;;;;;;;;;6260490;28;20484;-58
2023/06/11 02:52:22;;;;;;;23.20;15.38;;;;;;;;;;6263152;28;20055;-56
2023/06/11 02:55:23;;;;;;;22.48;15.23;;;;;;;;;;6259759;28;20041;-57
2023/06/11 02:58:24;;;;;;;21.73;15.20;;;;;;;;;;6259344;28;20044;-55
2023/06/11 03:01:25;;;;;;;25.80;16.05;;;;;;;;;;6259589;28;20037;-55
2023/06/11 03:04:25;;;;;;;23.40;15.95;;;;;;;;;;6259404;28;20059;-57
2023/06/11 03:07:26;;;;;;;25.67;17.63;;;;;;;;;;6257598;28;20076;-57
2023/06/11 03:10:27;;;;;;;25.30;16.58;;;;;;;;;;6257717;28;20055;-58
2023/06/11 03:13:28;;;;;;;29.90;18.52;;;;;;;;;;6258946;28;20383;-56
2023/06/11 03:16:29;;;;;;;26.98;17.17;;;;;;;;;;6256210;28;20052;-58
2023/06/11 03:19:29;;;;;;;25.58;17.63;;;;;;;;;;6259177;28;20499;-58
2023/06/11 03:22:30;;;;;;;27.58;17.25;;;;;;;;;;6258940;28;20048;-57
2023/06/11 03:25:31;;;;;;;29.67;17.85;;;;;;;;;;6256730;28;20049;-57
2023/06/11 03:28:31;;;;;;;26.45;17.52;;;;;;;;;;6260342;28;20167;-56
2023/06/11 03:31:32;;;;;;;28.83;17.90;;;;;;;;;;6258462;28;20041;-54
2023/06/11 03:34:33;;;;;;;28.73;18.30;;;;;;;;;;6258734;28;20056;-58
2023/06/11 03:37:33;;;;;;;26.25;16.98;;;;;;;;;;6258810;28;20040;-52
2023/06/11 03:40:34;;;;;;;30.75;17.83;;;;;;;;;;6261944;28;20052;-58
2023/06/11 03:43:35;;;;;;;28.40;17.38;;;;;;;;;;6261267;28;20057;-57
2023/06/11 03:46:35;;;;;;;31.08;17.70;;;;;;;;;;6257253;28;20077;-59
2023/06/11 03:49:36;;;;;;;26.58;17.23;;;;;;;;;;6258451;28;20045;-56
2023/06/11 03:52:36;;;;;;;28.40;17.45;;;;;;;;;;6257191;28;20144;-58
2023/06/11 03:55:37;;;;;;;26.45;16.80;;;;;;;;;;6254368;28;20056;-57
2023/06/11 03:58:38;;;;;;;25.67;17.15;;;;;;;;;;6258500;28;20065;-56
2023/06/11 04:01:38;;;;;;;25.45;17.17;;;;;;;;;;6253381;28;20049;-56
2023/06/11 04:04:39;;;;;;;25.10;15.98;;;;;;;;;;6258282;28;20049;-58
2023/06/11 04:07:40;;;;;;;22.77;15.30;;;;;;;;;;6258747;28;20049;-57
2023/06/11 04:10:40;;;;;;;25.35;15.43;;;;;;;;;;6258310;28;20048;-56
2023/06/11 04:13:41;;;;;;;22.52;15.05;;;;;;;;;;6258264;28;20036;-58
2023/06/11 04:16:41;;;;;;;23.65;15.40;;;;;;;;;;6254209;28;20041;-56
2023/06/11 04:19:42;;;;;;;21.27;14.52;;;;;;;;;;6258170;28;20049;-53
2023/06/11 04:22:43;;;;;;;22.95;15.15;;;;;;;;;;6258883;28;20075;-57
2023/06/11 04:25:43;;;;;;;22.30;13.77;;;;;;;;;;6258376;28;20041;-57
2023/06/11 04:28:45;;;;;;;19.77;14.45;;;;;;;;;;6258077;28;20099;-58
2023/06/11 04:31:47;;;;;;;20.00;14.23;;;;;;;;;;6261603;28;20388;-55
2023/06/11 04:34:48;;;;;;;20.20;13.55;;;;;;;;;;6258743;28;20408;-51
2023/06/11 04:37:49;;;;;;;20.50;14.25;;;;;;;;;;6258142;28;20128;-55
2023/06/11 04:40:50;;;;;;;20.53;14.20;;;;;;;;;;6258170;28;20037;-57
2023/06/11 04:43:52;;;;;;;19.17;13.68;;;;;;;;;;6257927;28;20107;-55
2023/06/11 04:46:57;;;;;;;20.33;13.85;;;;;;;;;;6256746;28;20505;-57
2023/06/11 04:50:02;;;;;;;19.30;13.27;;;;;;;;;;6258291;28;20532;-58
2023/06/11 04:53:03;;;;;;;19.13;13.88;;;;;;;;;;6257745;28;20563;-59
2023/06/11 04:56:04;;;;;;;20.05;13.70;;;;;;;;;;6255995;28;20052;-56
2023/06/11 04:59:06;;;;;;;19.13;13.20;;;;;;;;;;6258030;28;20152;-55
2023/06/11 05:02:06;;;;;;;18.17;13.05;;;;;;;;;;6257910;28;21575;-58
2023/06/11 05:05:07;;;;;;;18.70;13.55;;;;;;;;;;6256471;28;20476;-58
2023/06/11 05:08:07;;;;;;;19.50;13.73;;;;;;;;;;6255105;28;20045;-57
2023/06/11 05:11:08;;;;;;;18.52;13.05;;;;;;;;;;6255427;28;20389;-56
2023/06/11 05:14:09;;;;;;;20.10;13.52;;;;;;;;;;6255621;28;20064;-54
2023/06/11 05:17:10;;;;;;;22.25;12.82;;;;;;;;;;6255114;28;20556;-55
2023/06/11 05:20:11;;;;;;;20.75;13.13;;;;;;;;;;6260483;28;20079;-57
2023/06/11 05:23:12;;;;;;;17.15;12.80;;;;;;;;;;6256834;28;20098;-57
2023/06/11 05:26:13;;;;;;;18.95;13.85;;;;;;;;;;6256095;28;20041;-57
2023/06/11 05:29:14;;;;;;;18.95;13.30;;;;;;;;;;6257358;28;20049;-57
2023/06/11 05:32:14;;;;;;;19.60;13.02;;;;;;;;;;6257390;28;20140;-58
2023/06/11 05:35:15;;;;;;;21.60;14.40;;;;;;;;;;6255833;28;20041;-56
2023/06/11 05:38:17;;;;;;;18.85;13.27;;;;;;;;;;6256671;28;20950;-59
2023/06/11 05:41:18;;;;;;;20.20;13.23;;;;;;;;;;6255943;28;20064;-58
2023/06/11 05:44:19;;;;;;;18.77;12.87;;;;;;;;;;6255138;28;20526;-58
2023/06/11 05:47:20;;;;;;;24.70;12.90;;;;;;;;;;6260766;28;20074;-58
2023/06/11 05:50:21;;;;;;;20.05;12.48;;;;;;;;;;6264145;28;20056;-50
2023/06/11 05:53:21;;;;;;;19.03;12.90;;;;;;;;;;6264668;28;20041;-58
2023/06/11 05:56:22;;;;;;;20.73;13.70;;;;;;;;;;6263530;28;20332;-58
2023/06/11 05:59:23;;;;;;;17.63;13.23;;;;;;;;;;6264491;28;20106;-56
2023/06/11 06:02:23;;;;;;;18.73;12.93;;;;;;;;;;6264204;28;20040;-58
2023/06/11 06:05:25;;;;;;;19.13;13.07;;;;;;;;;;6262833;28;20120;-58
2023/06/11 06:08:26;;;;;;;17.87;13.40;;;;;;;;;;6253320;28;20040;-58
2023/06/11 06:11:27;;;;;;;18.52;12.98;;;;;;;;;;6269686;28;20361;-58
2023/06/11 06:14:27;;;;;;;18.70;12.88;;;;;;;;;;6269188;28;20049;-59
2023/06/11 06:17:28;;;;;;;18.27;13.30;;;;;;;;;;6268860;28;20044;-59
2023/06/11 06:20:28;;;;;;;18.17;13.13;;;;;;;;;;6269805;28;20147;-55
2023/06/11 06:23:29;;;;;;;16.00;11.82;;;;;;;;;;6269171;28;20142;-57
2023/06/11 06:26:30;;;;;;;16.05;11.88;;;;;;;;;;6264591;28;20037;-58
2023/06/11 06:29:32;;;;;;;17.52;11.95;;;;;;;;;;6267891;28;20045;-57
2023/06/11 06:32:33;;;;;;;14.35;11.63;;;;;;;;;;6261305;28;20068;-60
2023/06/11 06:35:34;;;;;;;15.55;11.63;;;;;;;;;;6270499;28;20045;-60
2023/06/11 06:38:36;;;;;;;21.17;11.97;;;;;;;;;;6267596;28;20064;-58
2023/06/11 06:41:37;;;;;;;14.75;11.27;;;;;;;;;;6259427;28;20056;-58
2023/06/11 06:44:37;;;;;;;17.50;11.00;;;;;;;;;;6267883;28;20049;-58
2023/06/11 06:47:38;;;;;;;14.47;10.67;;;;;;;;;;6267789;28;20045;-54
2023/06/11 06:50:38;;;;;;;17.77;11.18;;;;;;;;;;6268768;28;20056;-55
2023/06/11 06:53:40;;;;;;;16.10;10.10;;;;;;;;;;6266833;28;20168;-54
2023/06/11 06:56:40;;;;;;;14.95;10.50;;;;;;;;;;6262007;28;20504;-55
2023/06/11 06:59:41;;;;;;;16.15;11.27;;;;;;;;;;6266588;28;20041;-55
2023/06/11 07:02:41;;;;;;;15.73;11.20;;;;;;;;;;6268304;28;20053;-59
2023/06/11 07:05:43;;;;;;;14.67;10.73;;;;;;;;;;6267365;28;20122;-57
2023/06/11 07:08:44;;;;;;;15.30;10.73;;;;;;;;;;6254512;28;20079;-56
2023/06/11 07:11:46;;;;;;;14.32;10.38;;;;;;;;;;6264507;28;20065;-58
2023/06/11 07:14:47;;;;;;;16.45;10.32;;;;;;;;;;6266984;28;20057;-59
2023/06/11 07:17:48;;;;;;;18.67;11.73;;;;;;;;;;6266998;28;20084;-48
2023/06/11 07:20:48;;;;;;;15.85;11.20;;;;;;;;;;6265973;28;20051;-59
2023/06/11 07:23:49;;;;;;;13.40;10.50;;;;;;;;;;6262448;28;20065;-51
2023/06/11 07:26:50;;;;;;;17.97;11.77;;;;;;;;;;6259082;28;20033;-57
2023/06/11 07:29:50;;;;;;;17.55;10.68;;;;;;;;;;6267103;28;20106;-51
2023/06/11 07:32:53;;;;;;;13.07;10.13;;;;;;;;;;6267290;28;20060;-60
2023/06/11 07:35:54;;;;;;;14.95;10.10;;;;;;;;;;6266036;28;20136;-59
2023/06/11 07:38:54;;;;;;;13.47;9.93;;;;;;;;;;6266979;28;20037;-59
2023/06/11 07:41:55;;;;;;;15.43;10.05;;;;;;;;;;6257334;28;20057;-55
2023/06/11 07:44:56;;;;;;;14.10;10.30;;;;;;;;;;6263829;28;20072;-56
2023/06/11 07:47:56;;;;;;;15.67;10.33;;;;;;;;;;6263803;28;20037;-56
2023/06/11 07:50:57;;;;;;;13.87;9.90;;;;;;;;;;6267025;28;20048;-53
2023/06/11 07:54:00;;;;;;;11.90;9.67;;;;;;;;;;6254001;28;20064;-57
2023/06/11 07:57:01;;;;;;;15.90;10.48;;;;;;;;;;6265207;28;20454;-56
2023/06/11 08:00:03;;;;;;;15.93;10.70;;;;;;;;;;6266996;28;20075;-55
2023/06/11 08:03:03;;;;;;;14.05;10.68;;;;;;;;;;6266776;28;20048;-58
2023/06/11 08:06:04;;;;;;;14.67;10.30;;;;;;;;;;6263790;28;20124;-58
2023/06/11 08:09:05;;;;;;;13.07;10.23;;;;;;;;;;6265303;28;20049;-52
2023/06/11 08:12:07;;;;;;;16.70;10.45;;;;;;;;;;6265918;28;20384;-57
2023/06/11 08:15:09;;;;;;;13.63;9.25;;;;;;;;;;6264738;28;20048;-59
2023/06/11 08:18:10;;;;;;;14.68;9.80;;;;;;;;;;6266361;28;20119;-56
2023/06/11 08:21:11;;;;;;;15.53;9.93;;;;;;;;;;6266846;28;20429;-58
2023/06/11 08:24:11;;;;;;;13.40;9.35;;;;;;;;;;6265524;28;20090;-59
2023/06/11 08:27:12;;;;;;;12.77;9.30;;;;;;;;;;6265541;28;20522;-50
2023/06/11 08:30:13;;;;;;;12.73;8.90;;;;;;;;;;6264855;28;20087;-59
2023/06/11 08:33:13;;;;;;;12.80;9.30;;;;;;;;;;6249476;28;20594;-58
2023/06/11 08:36:14;;;;;;;15.60;9.30;;;;;;;;;;6265335;28;20068;-55
2023/06/11 08:39:15;;;;;;;13.37;9.27;;;;;;;;;;6251575;28;20563;-54
2023/06/11 08:42:16;;;;;;;16.25;9.70;;;;;;;;;;6262542;28;20073;-58
2023/06/11 08:45:17;;;;;;;16.13;9.00;;;;;;;;;;6262675;28;20043;-56
2023/06/11 08:48:21;;;;;;;12.87;8.97;;;;;;;;;;6256915;28;20076;-58
2023/06/11 08:51:22;;;;;;;15.43;10.07;;;;;;;;;;6265694;28;20053;-55
2023/06/11 08:54:23;;;;;;;;;;;;;;;;;;6259914;28;20080;-60
2023/06/11 08:57:25;;;;;;;13.18;9.20;;;;;;;;;;6263368;28;19921;-51
2023/06/11 09:00:26;;;;;;;13.65;9.68;;;;;;;;;;6265775;28;20072;-52
2023/06/11 09:03:26;;;;;;;16.03;9.40;;;;;;;;;;6256372;28;20510;-49
2023/06/11 09:06:28;;;;;;;12.47;8.97;;;;;;;;;;6257243;28;20044;-58
2023/06/11 09:09:28;;;;;;;15.15;9.52;;;;;;;;;;6251966;28;20111;-59
2023/06/11 09:12:29;;;;;;;13.00;8.80;;;;;;;;;;6257888;28;20037;-57
2023/06/11 09:15:29;;;;;;;14.17;8.93;;;;;;;;;;6264631;28;20057;-60
2023/06/11 09:18:30;;;;;;;15.33;9.23;;;;;;;;;;6265297;28;20136;-59
2023/06/11 09:21:31;;;;;;;12.60;9.20;;;;;;;;;;6265717;28;20106;-57
2023/06/11 09:24:32;;;;;;;15.40;9.07;;;;;;;;;;6263729;28;20132;-54
2023/06/11 09:27:32;;;;;;;13.67;9.27;;;;;;;;;;6265039;28;20045;-58
2023/06/11 09:30:33;;;;;;;13.90;8.55;;;;;;;;;;6265350;28;20102;-57
2023/06/11 09:33:36;;;;;;;;;;;;;;;;;;6245281;28;20093;-62
2023/06/11 09:36:37;;;;;;;11.23;8.23;;;;;;;;;;6256706;28;19924;-53
2023/06/11 09:39:41;;;;;;;13.00;8.73;;;;;;;;;;6264622;28;20397;-56
2023/06/11 09:42:46;;;;;;;13.02;8.88;;;;;;;;;;6264554;28;20037;-58
2023/06/11 09:45:55;;;;;;;13.00;8.50;;;;;;;;;;6263595;28;20542;-53
2023/06/11 09:48:56;;;;;;;15.13;8.57;;;;;;;;;;6248602;28;20542;-58
2023/06/11 09:51:57;;;;;;;15.73;9.17;;;;;;;;;;6264215;28;20060;-60
2023/06/11 09:54:59;;;;;;;12.10;9.00;;;;;;;;;;6263566;28;20109;-59
2023/06/11 09:57:59;;;;;;;13.20;8.88;;;;;;;;;;6249572;28;20084;-58
2023/06/11 10:01:02;;;;;;;12.00;8.00;;;;;;;;;;6253938;28;20453;-59
2023/06/11 10:04:03;;;;;;;11.43;8.18;;;;;;;;;;6263251;28;20044;-58
2023/06/11 10:07:05;;;;;;;11.70;7.93;;;;;;;;;;6247528;28;20052;-58
2023/06/11 10:10:08;;;;;;;13.20;8.43;;;;;;;;;;6246649;28;20408;-57
2023/06/11 10:13:08;;;;;;;12.60;8.85;;;;;;;;;;6252213;28;20504;-61
2023/06/11 10:16:09;;;;;;;14.63;8.97;;;;;;;;;;6260061;28;20139;-59
2023/06/11 10:19:10;;;;;;;11.15;8.30;;;;;;;;;;6263536;28;20045;-56
2023/06/11 10:22:11;;;;;;;13.77;8.83;;;;;;;;;;6259800;28;20523;-60
2023/06/11 10:25:12;;;;;;;13.63;8.43;;;;;;;;;;6253130;28;20088;-60
2023/06/11 10:28:13;;;;;;;14.40;8.87;;;;;;;;;;6257049;28;20054;-60
2023/06/11 10:31:39;;;;;;;12.68;8.55;;;;;;;;;;6258237;28;20053;-59
2023/06/11 10:34:41;;;;;;;13.27;8.40;;;;;;;;;;6264485;28;20041;-59
2023/06/11 10:37:42;;;;;;;14.00;8.25;;;;;;;;;;6262985;28;20144;-58
2023/06/11 10:40:43;;;;;;;15.30;8.32;;;;;;;;;;6262336;28;20103;-48
2023/06/11 10:43:46;;;;;;;11.98;8.52;;;;;;;;;;6264038;28;20044;-57
2023/06/11 10:46:53;;;;;;;10.45;7.97;;;;;;;;;;6265832;28;20040;-52
2023/06/11 10:50:11;;;;;;;12.50;8.00;;;;;;;;;;6263158;28;20056;-58
2023/06/11 10:53:13;;;;;;;15.32;8.13;;;;;;;;;;6262543;28;20072;-58
2023/06/11 10:56:14;;;;;;;12.65;8.35;;;;;;;;;;6257767;28;20202;-58
2023/06/11 10:59:16;;;;;;;12.80;8.40;;;;;;;;;;6266803;28;20118;-58
2023/06/11 11:02:18;;;;;;;12.77;8.10;;;;;;;;;;6267990;28;20048;-57
2023/06/11 11:05:19;;;;;;;13.50;8.43;;;;;;;;;;6268163;28;20135;-59
2023/06/11 11:08:20;;;;;;;12.30;8.07;;;;;;;;;;6258266;28;20052;-60
2023/06/11 11:11:22;;;;;;;13.10;8.52;;;;;;;;;;6266283;28;20455;-50
2023/06/11 11:14:27;;;;;;;11.13;8.38;;;;;;;;;;6267317;28;20041;-50
2023/06/11 11:17:30;;;;;;;13.32;8.50;;;;;;;;;;6266998;28;20053;-51
2023/06/11 11:20:32;;;;;;;17.98;8.85;;;;;;;;;;6267358;28;20132;-56
2023/06/11 11:23:33;;;;;;;;;;;;;;;;;;6268231;28;20514;-56
2023/06/11 11:26:44;;;;;;;12.38;7.43;;;;;;;;;;6267001;28;20015;-54
2023/06/11 11:29:44;;;;;;;11.88;7.57;;;;;;;;;;6265586;28;20056;-59
2023/06/11 11:32:45;;;;;;;13.87;8.00;;;;;;;;;;6255650;28;20052;-56
2023/06/11 11:35:50;;;;;;;14.57;7.70;;;;;;;;;;6255593;28;20439;-56
2023/06/11 11:38:51;;;;;;;11.43;8.35;;;;;;;;;;6253226;28;20202;-59
2023/06/11 11:41:53;;;;;;;11.53;8.43;;;;;;;;;;6256371;28;20045;-56
2023/06/11 11:44:55;;;;;;;12.05;8.70;;;;;;;;;;6257602;28;20077;-55
2023/06/11 11:47:55;;;;;;;12.15;7.82;;;;;;;;;;6256522;28;20052;-55
2023/06/11 11:51:06;;;;;;;14.77;7.73;;;;;;;;;;6256985;28;20049;-58
2023/06/11 11:54:07;;;;;;;13.32;7.72;;;;;;;;;;6254529;28;20405;-58
2023/06/11 11:57:08;;;;;;;11.48;7.65;;;;;;;;;;6258085;28;20045;-58
2023/06/11 12:00:10;;;;;;;12.43;7.93;;;;;;;;;;6254710;28;20147;-60
2023/06/11 12:03:10;;;;;;;10.93;8.13;;;;;;;;;;6256172;28;20056;-58
2023/06/11 12:06:11;;;;;;;10.90;8.33;;;;;;;;;;6256879;28;20056;-58
2023/06/11 12:09:12;;;;;;;11.33;7.93;;;;;;;;;;6256925;28;20793;-58
2023/06/11 12:12:13;;;;;;;12.45;7.97;;;;;;;;;;6255483;28;20037;-56
2023/06/11 12:15:14;;;;;;;12.23;8.13;;;;;;;;;;6257982;28;20103;-53
2023/06/11 12:18:14;;;;;;;15.70;8.27;;;;;;;;;;6258065;28;20060;-57
2023/06/11 12:21:15;;;;;;;14.90;8.50;;;;;;;;;;6256505;28;20874;-56
2023/06/11 12:24:16;;;;;;;14.87;8.57;;;;;;;;;;6255907;28;20067;-59
2023/06/11 12:27:17;;;;;;;12.47;8.03;;;;;;;;;;6257112;28;20419;-61
2023/06/11 12:30:17;;;;;;;11.53;7.97;;;;;;;;;;6255231;28;20510;-59
2023/06/11 12:33:18;;;;;;;11.77;8.13;;;;;;;;;;6255330;28;20140;-58
2023/06/11 12:36:19;;;;;;;13.00;8.33;;;;;;;;;;6250852;28;20041;-56
2023/06/11 12:39:20;;;;;;;13.63;7.83;;;;;;;;;;6245091;28;20094;-57
2023/06/11 12:42:20;;;;;;;12.60;8.35;;;;;;;;;;6246065;28;20044;-59
2023/06/11 12:45:21;;;;;;;10.50;7.77;;;;;;;;;;6247460;28;20056;-55
2023/06/11 12:48:22;;;;;;;17.03;9.60;;;;;;;;;;6244495;28;20091;-58
2023/06/11 12:51:23;;;;;;;13.37;7.80;;;;;;;;;;6246953;28;20148;-59
2023/06/11 12:54:25;;;;;;;13.80;8.23;;;;;;;;;;6245681;28;20048;-55
2023/06/11 12:57:26;;;;;;;13.77;8.38;;;;;;;;;;6246228;28;20116;-53
2023/06/11 13:00:29;;;;;;;12.23;8.03;;;;;;;;;;6246172;28;20536;-56
2023/06/11 13:03:31;;;;;;;13.02;7.57;;;;;;;;;;6247360;28;20578;-59
2023/06/11 13:06:31;;;;;;;12.65;8.30;;;;;;;;;;6249507;28;20644;-59
2023/06/11 13:09:32;;;;;;;14.47;8.53;;;;;;;;;;6248279;28;20052;-55
2023/06/11 13:12:34;;;;;;;15.20;8.60;;;;;;;;;;6247231;28;20049;-59
2023/06/11 13:15:35;;;;;;;12.48;8.07;;;;;;;;;;6245050;28;20049;-60
2023/06/11 13:18:35;;;;;;;12.77;8.23;;;;;;;;;;6244365;28;20457;-57
2023/06/11 13:21:36;;;;;;;13.83;8.90;;;;;;;;;;6243208;28;20475;-58
2023/06/11 13:24:37;;;;;;;13.43;8.10;;;;;;;;;;6244317;28;20068;-55
2023/06/11 13:27:38;;;;;;;13.50;9.43;;;;;;;;;;6247427;28;20314;-58
2023/06/11 13:30:38;;;;;;;14.00;8.33;;;;;;;;;;6247689;28;20072;-55
2023/06/11 13:33:40;;;;;;;11.57;8.00;;;;;;;;;;6244748;28;20060;-56
2023/06/11 13:36:41;;;;;;;14.55;8.32;;;;;;;;;;6247182;28;20064;-58
2023/06/11 13:39:42;;;;;;;12.95;8.35;;;;;;;;;;6246221;28;20136;-57
2023/06/11 13:42:43;;;;;;;15.60;7.73;;;;;;;;;;6243163;28;20041;-59
2023/06/11 13:45:44;;;;;;;11.70;7.90;;;;;;;;;;6243903;28;20073;-59
2023/06/11 13:48:46;;;;;;;16.25;8.70;;;;;;;;;;6242070;28;20045;-56
2023/06/11 13:51:46;;;;;;;;;;;;;;;;;;6245740;28;20168;-56
2023/06/11 13:54:47;;;;;;;11.07;7.20;;;;;;;;;;6248443;28;20350;-53
2023/06/11 13:57:48;;;;;;;12.57;8.40;;;;;;;;;;6248685;28;20099;-58
2023/06/11 14:00:48;;;;;;;12.70;7.83;;;;;;;;;;6244119;28;20041;-58
2023/06/11 14:03:49;;;;;;;12.68;7.70;;;;;;;;;;6241221;28;20102;-57
2023/06/11 14:06:50;;;;;;;12.43;8.27;;;;;;;;;;6249444;28;20049;-55
2023/06/11 14:09:51;;;;;;;12.57;7.73;;;;;;;;;;6243906;28;20041;-55
2023/06/11 14:12:52;;;;;;;13.48;8.32;;;;;;;;;;6242868;28;20447;-55
2023/06/11 14:15:52;;;;;;;13.17;7.80;;;;;;;;;;6245954;28;20055;-59
2023/06/11 14:18:53;;;;;;;13.97;8.20;;;;;;;;;;6246802;28;20480;-52
2023/06/11 14:21:54;;;;;;;13.27;8.20;;;;;;;;;;6247218;28;20056;-52
2023/06/11 14:24:54;;;;;;;13.27;8.27;;;;;;;;;;6243426;28;20064;-53
2023/06/11 14:27:55;;;;;;;14.10;7.80;;;;;;;;;;6243899;28;20045;-57
2023/06/11 14:30:56;;;;;;;13.53;7.77;;;;;;;;;;6246250;28;20512;-57
2023/06/11 14:33:56;;;;;;;13.63;7.17;;;;;;;;;;6247126;28;20553;-54
2023/06/11 14:36:57;;;;;;;13.97;7.93;;;;;;;;;;6250404;28;20143;-58
2023/06/11 14:39:58;;;;;;;16.20;8.03;;;;;;;;;;6248108;28;20049;-55
2023/06/11 14:42:59;;;;;;;17.43;8.30;;;;;;;;;;6250769;28;20042;-58
2023/06/11 14:45:59;;;;;;;16.42;8.40;;;;;;;;;;6252877;28;20063;-60
2023/06/11 14:49:00;;;;;;;12.67;8.47;;;;;;;;;;6249453;28;20052;-56
2023/06/11 14:52:08;;;;;;;13.33;8.27;;;;;;;;;;6250074;28;20594;-56
2023/06/11 14:55:08;;;;;;;11.45;7.63;;;;;;;;;;6249445;28;20052;-53
2023/06/11 14:58:09;;;;;;;14.27;8.43;;;;;;;;;;6250787;28;20122;-59
2023/06/11 15:01:10;;;;;;;14.53;8.37;;;;;;;;;;6246271;28;20560;-59
2023/06/11 15:04:11;;;;;;;15.15;8.80;;;;;;;;;;6244096;28;20049;-59
2023/06/11 15:07:12;;;;;;;13.17;8.13;;;;;;;;;;6248084;28;20519;-59
2023/06/11 15:10:13;;;;;;;14.13;8.40;;;;;;;;;;6249484;28;20634;-59
2023/06/11 15:13:13;;;;;;;13.67;7.97;;;;;;;;;;6248551;28;20053;-59
2023/06/11 15:16:14;;;;;;;15.20;8.63;;;;;;;;;;6250397;28;20063;-56
2023/06/11 15:19:15;;;;;;;15.33;8.73;;;;;;;;;;6246662;28;20045;-59
2023/06/11 15:22:16;;;;;;;12.97;8.47;;;;;;;;;;6246502;28;20055;-55
2023/06/11 15:25:16;;;;;;;15.10;8.37;;;;;;;;;;6250490;28;20551;-57
2023/06/11 15:28:17;;;;;;;12.80;8.03;;;;;;;;;;6247554;28;21324;-56
2023/06/11 15:31:18;;;;;;;13.97;8.20;;;;;;;;;;6248593;28;20318;-59
2023/06/11 15:34:18;;;;;;;13.67;8.33;;;;;;;;;;6247156;28;20140;-57
2023/06/11 15:37:19;;;;;;;13.20;7.70;;;;;;;;;;6248218;28;20892;-57
2023/06/11 15:40:22;;;;;;;15.97;8.30;;;;;;;;;;6248668;28;20098;-59
2023/06/11 15:43:22;;;;;;;15.38;8.40;;;;;;;;;;6248707;28;20072;-61
2023/06/11 15:46:23;;;;;;;11.80;7.83;;;;;;;;;;6250820;28;20136;-59
2023/06/11 15:49:23;;;;;;;17.13;8.50;;;;;;;;;;6246231;28;20105;-58
2023/06/11 15:52:24;;;;;;;13.87;8.63;;;;;;;;;;6246991;28;20145;-54
2023/06/11 15:55:24;;;;;;;14.57;8.23;;;;;;;;;;6247216;28;20041;-56
2023/06/11 15:58:25;;;;;;;16.07;8.53;;;;;;;;;;6247073;28;20490;-61
2023/06/11 16:01:26;;;;;;;11.80;8.07;;;;;;;;;;6247952;28;20380;-57
2023/06/11 16:04:27;;;;;;;13.82;8.18;;;;;;;;;;6245497;28;20084;-55
2023/06/11 16:07:28;;;;;;;11.75;7.95;;;;;;;;;;6247210;28;20059;-59
2023/06/11 16:10:29;;;;;;;12.03;8.20;;;;;;;;;;6248196;28;20643;-56
2023/06/11 16:13:30;;;;;;;15.90;7.90;;;;;;;;;;6247205;28;20045;-55
2023/06/11 16:16:30;;;;;;;13.70;8.40;;;;;;;;;;6247486;28;20484;-56
2023/06/11 16:19:31;;;;;;;15.07;8.30;;;;;;;;;;6246881;28;20298;-57
2023/06/11 16:22:32;;;;;;;13.43;8.48;;;;;;;;;;6252835;28;20059;-60
2023/06/11 16:25:33;;;;;;;15.17;8.60;;;;;;;;;;6255227;28;20411;-53
2023/06/11 16:28:34;;;;;;;16.77;8.37;;;;;;;;;;6252962;28;20045;-56
2023/06/11 16:31:34;;;;;;;14.33;8.67;;;;;;;;;;6253998;28;20587;-57
2023/06/11 16:34:35;;;;;;;15.95;8.35;;;;;;;;;;6256187;28;20052;-59
2023/06/11 16:37:37;;;;;;;15.07;9.20;;;;;;;;;;6253394;28;20128;-56
2023/06/11 16:40:38;;;;;;;15.32;8.13;;;;;;;;;;6256017;28;20163;-58
2023/06/11 16:43:38;;;;;;;13.77;9.23;;;;;;;;;;6255116;28;20053;-54
2023/06/11 16:46:39;;;;;;;14.37;9.23;;;;;;;;;;6257399;28;20072;-57
2023/06/11 16:49:39;;;;;;;19.57;8.93;;;;;;;;;;6254398;28;20048;-54
2023/06/11 16:52:40;;;;;;;12.63;8.40;;;;;;;;;;6253138;28;20466;-56
2023/06/11 16:55:42;;;;;;;14.10;8.20;;;;;;;;;;6255523;28;20048;-60
2023/06/11 16:58:42;;;;;;;13.13;8.25;;;;;;;;;;6253919;28;20324;-62
2023/06/11 17:01:43;;;;;;;14.90;8.53;;;;;;;;;;6253383;28;20056;-59
2023/06/11 17:04:44;;;;;;;13.70;8.17;;;;;;;;;;6255302;28;20526;-60
2023/06/11 17:07:44;;;;;;;14.10;8.20;;;;;;;;;;6253191;28;20575;-57
2023/06/11 17:10:45;;;;;;;12.77;8.07;;;;;;;;;;6255522;28;20045;-58
2023/06/11 17:13:46;;;;;;;16.65;9.10;;;;;;;;;;6256275;28;20071;-59
2023/06/11 17:16:47;;;;;;;15.03;8.80;;;;;;;;;;6258228;28;20057;-59
2023/06/11 17:19:47;;;;;;;14.07;8.37;;;;;;;;;;6258804;28;20309;-58
2023/06/11 17:22:50;;;;;;;17.13;8.57;;;;;;;;;;6260213;28;21357;-56
2023/06/11 17:25:51;;;;;;;16.17;8.75;;;;;;;;;;6258020;28;20970;-58
2023/06/11 17:28:51;;;;;;;10.97;7.83;;;;;;;;;;6258132;28;20049;-59
2023/06/11 17:31:52;;;;;;;14.37;8.33;;;;;;;;;;6256850;28;20048;-57
2023/06/11 17:34:55;;;;;;;12.77;8.40;;;;;;;;;;6256740;28;20563;-57
2023/06/11 17:37:56;;;;;;;14.45;8.85;;;;;;;;;;6261569;28;20091;-56
2023/06/11 17:40:57;;;;;;;17.03;9.10;;;;;;;;;;6263017;28;20901;-56
2023/06/11 17:43:57;;;;;;;15.00;8.10;;;;;;;;;;6255542;28;20383;-58
2023/06/11 17:46:58;;;;;;;17.83;9.27;;;;;;;;;;6258049;28;20408;-53